Time,TemperatureF,DewpointF,PressureIn,WindDirection,WindDirectionDegrees,WindSpeedMPH,WindSpeedGustMPH,Humidity,HourlyPrecipIn,Conditions,Clouds,dailyrainin,SoftwareType,DateUTC
2013-08-20 00:04:00,80.6,54.7,29.90,NNW,338,3.8,5.1,41,0.00,,,0.00,VWS V14.01,2013-08-19 21:04:00,
2013-08-20 00:09:00,80.6,54.7,29.89,NNW,338,5.3,5.3,41,0.00,,,0.00,VWS V14.01,2013-08-19 21:09:00,
2013-08-20 00:14:00,80.6,54.7,29.89,NW,315,1.1,1.1,41,0.00,,,0.00,VWS V14.01,2013-08-19 21:14:00,
2013-08-20 00:20:00,80.6,54.7,29.89,NW,315,4.2,4.2,41,0.00,,,0.00,VWS V14.01,2013-08-19 21:20:00,
2013-08-20 00:25:00,80.6,54.7,29.89,NW,315,4.9,4.9,41,0.00,,,0.00,VWS V14.01,2013-08-19 21:25:00,
2013-08-20 00:30:00,80.6,54.7,29.89,NW,315,5.5,5.5,41,0.00,,,0.00,VWS V14.01,2013-08-19 21:30:00,
2013-08-20 00:35:00,80.6,54.7,29.89,NW,315,2.0,2.0,41,0.00,,,0.00,VWS V14.01,2013-08-19 21:35:00,
2013-08-20 00:40:00,80.6,54.7,29.89,NW,315,2.0,6.2,41,0.00,,,0.00,VWS V14.01,2013-08-19 21:40:00,
2013-08-20 00:45:00,80.2,54.3,29.89,WNW,292,3.8,3.8,41,0.00,,,0.00,VWS V14.01,2013-08-19 21:45:00,
2013-08-20 00:50:00,80.2,55.0,29.89,NW,315,2.6,2.6,42,0.00,,,0.00,VWS V14.01,2013-08-19 21:50:00,
2013-08-20 00:55:00,80.1,54.9,29.89,NNW,338,3.1,3.1,42,0.00,,,0.00,VWS V14.01,2013-08-19 21:55:00,
2013-08-20 01:00:00,80.1,54.9,29.89,WNW,292,0.8,0.8,42,0.00,,,0.00,VWS V14.01,2013-08-19 22:00:00,
2013-08-20 01:05:00,79.9,54.8,29.89,NW,315,0.0,0.0,42,0.00,,,0.00,VWS V14.01,2013-08-19 22:05:00,
2013-08-20 01:10:00,79.9,54.8,29.89,NNW,338,0.0,3.8,42,0.00,,,0.00,VWS V14.01,2013-08-19 22:10:00,
2013-08-20 01:15:00,79.7,54.6,29.89,North,0,0.0,0.0,42,0.00,,,0.00,VWS V14.01,2013-08-19 22:15:00,
2013-08-20 01:20:00,79.3,54.8,29.89,North,0,0.0,0.0,43,0.00,,,0.00,VWS V14.01,2013-08-19 22:20:00,
2013-08-20 01:25:00,79.5,55.0,29.89,NNE,22,0.0,0.0,43,0.00,,,0.00,VWS V14.01,2013-08-19 22:25:00,
2013-08-20 01:31:00,79.9,55.4,29.89,NNW,338,0.0,0.0,43,0.00,,,0.00,VWS V14.01,2013-08-19 22:31:00,
2013-08-20 01:36:00,79.7,55.2,29.89,WNW,292,0.0,0.0,43,0.00,,,0.00,VWS V14.01,2013-08-19 22:36:00,
2013-08-20 01:41:00,79.3,54.8,29.89,NNW,338,0.0,0.0,43,0.00,,,0.00,VWS V14.01,2013-08-19 22:41:00,
2013-08-20 01:46:00,79.5,55.0,29.89,NNW,338,0.0,0.0,43,0.00,,,0.00,VWS V14.01,2013-08-19 22:46:00,
2013-08-20 01:51:00,79.5,55.0,29.89,North,0,0.0,0.0,43,0.00,,,0.00,VWS V14.01,2013-08-19 22:51:00,
2013-08-20 01:56:00,79.7,55.2,29.89,North,0,3.1,3.1,43,0.00,,,0.00,VWS V14.01,2013-08-19 22:56:00,
2013-08-20 02:01:00,79.7,54.6,29.89,North,0,0.0,0.0,42,0.00,,,0.00,VWS V14.01,2013-08-19 23:01:00,
2013-08-20 02:06:00,79.7,54.6,29.88,NW,315,0.0,4.4,42,0.00,,,0.00,VWS V14.01,2013-08-19 23:06:00,
2013-08-20 02:11:00,79.7,54.6,29.88,NW,315,0.0,0.0,42,0.00,,,0.00,VWS V14.01,2013-08-19 23:11:00,
2013-08-20 02:16:00,79.5,54.4,29.88,NW,315,0.0,0.0,42,0.00,,,0.00,VWS V14.01,2013-08-19 23:16:00,
2013-08-20 02:21:00,79.5,54.4,29.88,WNW,292,0.0,0.0,42,0.00,,,0.00,VWS V14.01,2013-08-19 23:21:00,
2013-08-20 02:26:00,79.5,54.4,29.88,WNW,292,1.3,1.3,42,0.00,,,0.00,VWS V14.01,2013-08-19 23:26:00,
2013-08-20 02:31:00,79.3,54.2,29.88,WNW,292,2.0,2.0,42,0.00,,,0.00,VWS V14.01,2013-08-19 23:31:00,
2013-08-20 02:36:00,79.7,54.6,29.87,NW,315,3.3,3.3,42,0.00,,,0.00,VWS V14.01,2013-08-19 23:36:00,
2013-08-20 02:41:00,79.7,54.6,29.87,WNW,292,2.0,2.4,42,0.00,,,0.00,VWS V14.01,2013-08-19 23:41:00,
2013-08-20 02:46:00,79.7,54.6,29.87,WNW,292,1.5,1.5,42,0.00,,,0.00,VWS V14.01,2013-08-19 23:46:00,
2013-08-20 02:51:00,79.7,53.9,29.87,NNW,338,9.3,9.3,41,0.00,,,0.00,VWS V14.01,2013-08-19 23:51:00,
2013-08-20 02:56:00,79.9,54.1,29.87,West,270,2.4,2.4,41,0.00,,,0.00,VWS V14.01,2013-08-19 23:56:00,
2013-08-20 03:02:00,80.1,54.3,29.87,NW,315,0.4,0.4,41,0.00,,,0.00,VWS V14.01,2013-08-20 00:02:00,
2013-08-20 03:07:00,79.9,54.1,29.87,NNW,338,3.3,3.3,41,0.00,,,0.00,VWS V14.01,2013-08-20 00:07:00,
2013-08-20 03:12:00,79.9,54.1,29.87,WNW,292,2.9,2.9,41,0.00,,,0.00,VWS V14.01,2013-08-20 00:12:00,
2013-08-20 03:17:00,79.9,54.8,29.87,West,270,4.0,4.0,42,0.00,,,0.00,VWS V14.01,2013-08-20 00:17:00,
2013-08-20 03:22:00,79.7,54.6,29.87,WNW,292,0.0,0.0,42,0.00,,,0.00,VWS V14.01,2013-08-20 00:22:00,
2013-08-20 03:27:00,79.7,54.6,29.87,West,270,3.1,3.1,42,0.00,,,0.00,VWS V14.01,2013-08-20 00:27:00,
2013-08-20 03:32:00,79.7,54.6,29.87,WNW,292,2.0,2.0,42,0.00,,,0.00,VWS V14.01,2013-08-20 00:32:00,
2013-08-20 03:37:00,79.5,54.4,29.87,WNW,292,0.0,0.0,42,0.00,,,0.00,VWS V14.01,2013-08-20 00:37:00,
2013-08-20 03:42:00,79.3,54.2,29.87,NW,315,0.0,1.5,42,0.00,,,0.00,VWS V14.01,2013-08-20 00:42:00,
2013-08-20 03:47:00,79.2,53.5,29.87,WNW,292,0.0,0.0,41,0.00,,,0.00,VWS V14.01,2013-08-20 00:47:00,
2013-08-20 03:52:00,79.0,53.3,29.87,NW,315,0.0,0.0,41,0.00,,,0.00,VWS V14.01,2013-08-20 00:52:00,
2013-08-20 03:57:00,79.0,53.3,29.87,NW,315,6.0,6.0,41,0.00,,,0.00,VWS V14.01,2013-08-20 00:57:00,
2013-08-20 04:02:00,79.0,53.3,29.87,NW,315,6.4,6.4,41,0.00,,,0.00,VWS V14.01,2013-08-20 01:02:00,
2013-08-20 04:07:00,79.0,53.3,29.87,NW,315,6.4,6.4,41,0.00,,,0.00,VWS V14.01,2013-08-20 01:07:00,
2013-08-20 04:12:00,79.0,53.3,29.87,West,270,2.0,2.0,41,0.00,,,0.00,VWS V14.01,2013-08-20 01:12:00,
2013-08-20 04:17:00,79.0,53.3,29.86,West,270,3.1,3.1,41,0.00,,,0.00,VWS V14.01,2013-08-20 01:17:00,
2013-08-20 04:22:00,79.2,52.8,29.86,North,0,3.3,3.3,40,0.00,,,0.00,VWS V14.01,2013-08-20 01:22:00,
2013-08-20 04:27:00,79.5,53.0,29.86,NW,315,0.0,0.0,40,0.00,,,0.00,VWS V14.01,2013-08-20 01:27:00,
2013-08-20 04:33:00,79.3,52.9,29.86,West,270,0.0,0.0,40,0.00,,,0.00,VWS V14.01,2013-08-20 01:33:00,
2013-08-20 04:38:00,79.3,52.9,29.86,NNW,338,3.1,3.1,40,0.00,,,0.00,VWS V14.01,2013-08-20 01:38:00,
2013-08-20 04:43:00,79.3,52.9,29.86,NW,315,3.1,6.4,40,0.00,,,0.00,VWS V14.01,2013-08-20 01:43:00,
2013-08-20 04:48:00,79.3,52.9,29.86,NNW,338,5.3,5.3,40,0.00,,,0.00,VWS V14.01,2013-08-20 01:48:00,
2013-08-20 04:53:00,79.5,53.0,29.86,WNW,292,2.4,2.4,40,0.00,,,0.00,VWS V14.01,2013-08-20 01:53:00,
2013-08-20 04:58:00,79.5,53.0,29.86,WNW,292,5.1,5.1,40,0.00,,,0.00,VWS V14.01,2013-08-20 01:58:00,
2013-08-20 05:03:00,79.5,53.0,29.86,NW,315,4.2,4.2,40,0.00,,,0.00,VWS V14.01,2013-08-20 02:03:00,
2013-08-20 05:08:00,79.5,53.0,29.86,NW,315,4.2,4.2,40,0.00,,,0.00,VWS V14.01,2013-08-20 02:08:00,
2013-08-20 05:13:00,79.0,53.3,29.86,NW,315,8.7,8.7,41,0.00,,,0.00,VWS V14.01,2013-08-20 02:13:00,
2013-08-20 05:18:00,79.0,53.9,29.86,NNW,338,4.4,4.4,42,0.00,,,0.00,VWS V14.01,2013-08-20 02:18:00,
2013-08-20 05:23:00,78.8,53.1,29.86,WNW,292,0.0,0.0,41,0.00,,,0.00,VWS V14.01,2013-08-20 02:23:00,
2013-08-20 05:28:00,78.8,53.8,29.86,NNW,338,5.1,5.1,42,0.00,,,0.00,VWS V14.01,2013-08-20 02:28:00,
2013-08-20 05:33:00,78.8,53.8,29.85,NNW,338,8.2,8.2,42,0.00,,,0.00,VWS V14.01,2013-08-20 02:33:00,
2013-08-20 05:38:00,79.0,53.3,29.85,WNW,292,3.5,6.2,41,0.00,,,0.00,VWS V14.01,2013-08-20 02:38:00,
2013-08-20 05:43:00,79.0,53.3,29.85,North,0,2.4,7.6,41,0.00,,,0.00,VWS V14.01,2013-08-20 02:43:00,
2013-08-20 05:48:00,79.0,52.6,29.85,NNW,338,1.7,7.1,40,0.00,,,0.00,VWS V14.01,2013-08-20 02:48:00,
2013-08-20 05:53:00,79.0,51.9,29.85,NW,315,5.3,6.4,39,0.00,,,0.00,VWS V14.01,2013-08-20 02:53:00,
2013-08-20 05:58:00,79.3,52.2,29.84,NNW,338,2.0,2.0,39,0.00,,,0.00,VWS V14.01,2013-08-20 02:58:00,
2013-08-20 06:03:00,79.5,51.7,29.85,NNW,338,0.8,0.8,38,0.00,,,0.00,VWS V14.01,2013-08-20 03:03:00,
2013-08-20 06:08:00,79.5,51.7,29.85,NNW,338,0.8,0.8,38,0.00,,,0.00,VWS V14.01,2013-08-20 03:08:00,
2013-08-20 06:13:00,79.7,52.5,29.85,NNW,338,0.0,0.0,39,0.00,,,0.00,VWS V14.01,2013-08-20 03:13:00,
2013-08-20 06:18:00,79.7,52.5,29.85,NW,315,3.5,3.5,39,0.00,,,0.00,VWS V14.01,2013-08-20 03:18:00,
2013-08-20 06:23:00,79.7,52.5,29.85,NW,315,5.5,7.6,39,0.00,,,0.00,VWS V14.01,2013-08-20 03:23:00,
2013-08-20 06:28:00,79.7,52.5,29.85,NNW,338,2.9,2.9,39,0.00,,,0.00,VWS V14.01,2013-08-20 03:28:00,
2013-08-20 06:34:00,79.5,52.4,29.85,NNW,338,8.2,8.2,39,0.00,,,0.00,VWS V14.01,2013-08-20 03:34:00,
2013-08-20 06:39:00,79.7,52.5,29.85,NNE,22,0.0,0.0,39,0.00,,,0.00,VWS V14.01,2013-08-20 03:39:00,
2013-08-20 06:44:00,79.5,53.0,29.86,North,0,5.1,5.1,40,0.00,,,0.00,VWS V14.01,2013-08-20 03:44:00,
2013-08-20 06:49:00,79.5,52.4,29.85,NNE,22,3.1,4.4,39,0.00,,,0.00,VWS V14.01,2013-08-20 03:49:00,
2013-08-20 06:54:00,79.5,52.4,29.86,NNE,22,5.3,6.0,39,0.00,,,0.00,VWS V14.01,2013-08-20 03:54:00,
2013-08-20 06:59:00,79.7,53.2,29.86,North,0,2.0,2.0,40,0.00,,,0.00,VWS V14.01,2013-08-20 03:59:00,
2013-08-20 07:01:00,79.7,53.2,29.86,North,0,2.0,2.0,40,0.00,,,0.00,VWS V14.01,2013-08-20 04:01:00,
2013-08-20 07:02:00,79.5,53.0,29.86,North,0,3.1,3.1,40,0.00,,,0.00,VWS V14.01,2013-08-20 04:02:00,
2013-08-20 07:04:00,79.3,52.9,29.86,North,0,0.0,0.0,40,0.00,,,0.00,VWS V14.01,2013-08-20 04:04:00,
2013-08-20 07:05:00,79.3,52.9,29.86,North,0,0.0,0.0,40,0.00,,,0.00,VWS V14.01,2013-08-20 04:05:00,
2013-08-20 07:10:00,79.2,52.8,29.86,NNW,338,4.2,4.2,40,0.00,,,0.00,VWS V14.01,2013-08-20 04:10:00,
2013-08-20 07:15:00,79.3,52.9,29.86,NNE,22,1.5,1.5,40,0.00,,,0.00,VWS V14.01,2013-08-20 04:15:00,
2013-08-20 07:20:00,79.7,52.5,29.86,NNW,338,0.0,0.0,39,0.00,,,0.00,VWS V14.01,2013-08-20 04:20:00,
2013-08-20 07:25:00,79.7,52.5,29.86,NE,45,0.0,0.0,39,0.00,,,0.00,VWS V14.01,2013-08-20 04:25:00,
2013-08-20 07:30:00,79.9,53.4,29.86,NE,45,0.0,0.0,40,0.00,,,0.00,VWS V14.01,2013-08-20 04:30:00,
2013-08-20 07:35:00,80.2,52.3,29.86,North,0,2.6,6.9,38,0.00,,,0.00,VWS V14.01,2013-08-20 04:35:00,
2013-08-20 07:40:00,80.6,52.6,29.86,North,0,4.9,4.9,38,0.00,,,0.00,VWS V14.01,2013-08-20 04:40:00,
2013-08-20 07:45:00,80.6,53.3,29.86,NNE,22,0.0,0.0,39,0.00,,,0.00,VWS V14.01,2013-08-20 04:45:00,
2013-08-20 07:51:00,80.6,53.3,29.86,NW,315,4.0,4.0,39,0.00,,,0.00,VWS V14.01,2013-08-20 04:51:00,
2013-08-20 07:56:00,80.8,53.5,29.86,NNE,22,0.0,0.0,39,0.00,,,0.00,VWS V14.01,2013-08-20 04:56:00,
2013-08-20 08:01:00,81.1,53.8,29.86,NNE,22,0.0,0.0,39,0.00,,,0.00,VWS V14.01,2013-08-20 05:01:00,
2013-08-20 08:06:00,81.5,53.4,29.86,NNE,22,0.0,0.0,38,0.00,,,0.00,VWS V14.01,2013-08-20 05:06:00,
2013-08-20 08:11:00,81.7,53.6,29.87,NNE,22,0.0,0.0,38,0.00,,,0.00,VWS V14.01,2013-08-20 05:11:00,
2013-08-20 08:16:00,81.9,54.5,29.87,WSW,248,0.0,0.0,39,0.00,,,0.00,VWS V14.01,2013-08-20 05:16:00,
2013-08-20 08:21:00,81.7,54.3,29.87,North,0,3.3,3.3,39,0.00,,,0.00,VWS V14.01,2013-08-20 05:21:00,
2013-08-20 08:26:00,81.7,54.3,29.87,North,0,1.3,1.3,39,0.00,,,0.00,VWS V14.01,2013-08-20 05:26:00,
2013-08-20 08:31:00,82.0,54.6,29.87,North,0,3.8,3.8,39,0.00,,,0.00,VWS V14.01,2013-08-20 05:31:00,
2013-08-20 08:36:00,81.9,54.5,29.87,NNW,338,4.9,4.9,39,0.00,,,0.00,VWS V14.01,2013-08-20 05:36:00,
2013-08-20 08:41:00,81.7,55.0,29.87,NNW,338,7.6,7.6,40,0.00,,,0.00,VWS V14.01,2013-08-20 05:41:00,
2013-08-20 08:46:00,81.9,55.2,29.88,NNW,338,8.2,8.2,40,0.00,,,0.00,VWS V14.01,2013-08-20 05:46:00,
2013-08-20 08:51:00,81.9,55.2,29.88,NNW,338,3.3,3.3,40,0.00,,,0.00,VWS V14.01,2013-08-20 05:51:00,
2013-08-20 08:56:00,82.2,55.5,29.87,North,0,2.2,2.2,40,0.00,,,0.00,VWS V14.01,2013-08-20 05:56:00,
2013-08-20 09:01:00,82.4,55.6,29.87,North,0,6.2,6.2,40,0.00,,,0.00,VWS V14.01,2013-08-20 06:01:00,
2013-08-20 09:06:00,82.4,55.6,29.87,NNW,338,5.3,5.3,40,0.00,,,0.00,VWS V14.01,2013-08-20 06:06:00,
2013-08-20 09:11:00,82.8,56.0,29.87,West,270,2.4,2.4,40,0.00,,,0.00,VWS V14.01,2013-08-20 06:11:00,
2013-08-20 09:16:00,83.1,55.6,29.87,NW,315,5.8,5.8,39,0.00,,,0.00,VWS V14.01,2013-08-20 06:16:00,
2013-08-20 09:21:00,83.1,55.6,29.87,NNW,338,2.2,2.2,39,0.00,,,0.00,VWS V14.01,2013-08-20 06:21:00,
2013-08-20 09:26:00,83.3,55.0,29.87,NNW,338,5.8,5.8,38,0.00,,,0.00,VWS V14.01,2013-08-20 06:26:00,
2013-08-20 09:32:00,83.3,55.8,29.87,NNW,338,3.1,3.1,39,0.00,,,0.00,VWS V14.01,2013-08-20 06:32:00,
2013-08-20 09:37:00,83.8,56.2,29.88,NW,315,0.0,0.0,39,0.00,,,0.00,VWS V14.01,2013-08-20 06:37:00,
2013-08-20 09:42:00,85.1,56.6,29.88,NW,315,4.6,4.6,38,0.00,,,0.00,VWS V14.01,2013-08-20 06:42:00,
2013-08-20 09:47:00,85.3,56.1,29.88,West,270,0.0,0.0,37,0.00,,,0.00,VWS V14.01,2013-08-20 06:47:00,
2013-08-20 09:52:00,85.3,56.1,29.88,NW,315,0.0,0.0,37,0.00,,,0.00,VWS V14.01,2013-08-20 06:52:00,
2013-08-20 09:57:00,85.6,56.3,29.88,North,0,2.2,2.6,37,0.00,,,0.00,VWS V14.01,2013-08-20 06:57:00,
2013-08-20 10:02:00,85.6,56.3,29.88,West,270,0.0,0.0,37,0.00,,,0.00,VWS V14.01,2013-08-20 07:02:00,
2013-08-20 10:07:00,86.0,56.7,29.88,North,0,0.0,0.0,37,0.00,,,0.00,VWS V14.01,2013-08-20 07:07:00,
2013-08-20 10:12:00,86.2,56.9,29.88,NNE,22,0.0,0.0,37,0.00,,,0.00,VWS V14.01,2013-08-20 07:12:00,
2013-08-20 10:17:00,86.5,57.1,29.88,North,0,0.0,0.0,37,0.00,,,0.00,VWS V14.01,2013-08-20 07:17:00,
2013-08-20 10:22:00,86.9,57.5,29.88,NNE,22,0.0,0.0,37,0.00,,,0.00,VWS V14.01,2013-08-20 07:22:00,
2013-08-20 10:27:00,86.0,57.4,29.88,West,270,0.0,0.0,38,0.00,,,0.00,VWS V14.01,2013-08-20 07:27:00,
2013-08-20 10:32:00,86.7,57.3,29.88,West,270,0.0,0.0,37,0.00,,,0.00,VWS V14.01,2013-08-20 07:32:00,
2013-08-20 10:37:00,87.4,57.2,29.87,NNE,22,0.0,0.0,36,0.00,,,0.00,VWS V14.01,2013-08-20 07:37:00,
2013-08-20 10:42:00,87.1,57.7,29.88,North,0,4.0,4.0,37,0.00,,,0.00,VWS V14.01,2013-08-20 07:42:00,
2013-08-20 10:47:00,87.4,57.2,29.88,NNE,22,6.0,6.0,36,0.00,,,0.00,VWS V14.01,2013-08-20 07:47:00,
2013-08-20 10:52:00,87.6,58.1,29.88,WNW,292,0.0,0.0,37,0.00,,,0.00,VWS V14.01,2013-08-20 07:52:00,
2013-08-20 10:57:00,88.0,57.7,29.88,West,270,0.0,0.0,36,0.00,,,0.00,VWS V14.01,2013-08-20 07:57:00,
2013-08-20 11:02:00,88.0,57.7,29.88,WSW,248,0.0,0.0,36,0.00,,,0.00,VWS V14.01,2013-08-20 08:02:00,
2013-08-20 11:07:00,88.0,56.9,29.88,NNE,22,2.4,5.8,35,0.00,,,0.00,VWS V14.01,2013-08-20 08:07:00,
2013-08-20 11:12:00,87.8,57.5,29.88,NNE,22,2.0,2.0,36,0.00,,,0.00,VWS V14.01,2013-08-20 08:12:00,
2013-08-20 11:17:00,87.3,57.8,29.88,NNE,22,3.1,3.1,37,0.00,,,0.00,VWS V14.01,2013-08-20 08:17:00,
2013-08-20 11:22:00,87.3,57.1,29.88,NNE,22,5.8,5.8,36,0.00,,,0.00,VWS V14.01,2013-08-20 08:22:00,
2013-08-20 11:28:00,87.4,57.9,29.88,NNE,22,6.7,6.7,37,0.00,,,0.00,VWS V14.01,2013-08-20 08:28:00,
2013-08-20 11:33:00,87.8,58.3,29.88,NNE,22,4.2,4.4,37,0.00,,,0.00,VWS V14.01,2013-08-20 08:33:00,
2013-08-20 11:38:00,88.0,57.7,29.87,North,0,0.0,0.0,36,0.00,,,0.00,VWS V14.01,2013-08-20 08:38:00,
2013-08-20 11:43:00,88.7,57.5,29.87,NNE,22,0.0,0.0,35,0.00,,,0.00,VWS V14.01,2013-08-20 08:43:00,
2013-08-20 11:48:00,88.5,55.7,29.87,North,0,8.2,9.6,33,0.00,,,0.00,VWS V14.01,2013-08-20 08:48:00,
2013-08-20 11:53:00,88.3,55.5,29.87,North,0,9.8,9.8,33,0.00,,,0.00,VWS V14.01,2013-08-20 08:53:00,
2013-08-20 11:58:00,88.3,56.4,29.87,NNE,22,4.2,4.6,34,0.00,,,0.00,VWS V14.01,2013-08-20 08:58:00,
2013-08-20 12:03:00,88.7,55.9,29.87,NNE,22,5.1,6.0,33,0.00,,,0.00,VWS V14.01,2013-08-20 09:03:00,
2013-08-20 12:08:00,89.2,56.3,29.87,NE,45,6.4,7.1,33,0.00,,,0.00,VWS V14.01,2013-08-20 09:08:00,
2013-08-20 12:13:00,89.4,56.5,29.87,NNE,22,4.6,4.6,33,0.00,,,0.00,VWS V14.01,2013-08-20 09:13:00,
2013-08-20 12:18:00,89.8,56.0,29.86,NE,45,3.3,5.1,32,0.00,,,0.00,VWS V14.01,2013-08-20 09:18:00,
2013-08-20 12:23:00,89.8,56.0,29.86,NNE,22,8.2,8.7,32,0.00,,,0.00,VWS V14.01,2013-08-20 09:23:00,
2013-08-20 12:28:00,89.4,53.9,29.86,NE,45,5.1,6.9,30,0.00,,,0.00,VWS V14.01,2013-08-20 09:28:00,
2013-08-20 12:33:00,89.2,53.7,29.86,ENE,68,5.1,6.4,30,0.00,,,0.00,VWS V14.01,2013-08-20 09:33:00,
2013-08-20 12:38:00,89.8,53.3,29.86,NNE,22,4.4,8.2,29,0.00,,,0.00,VWS V14.01,2013-08-20 09:38:00,
2013-08-20 12:43:00,90.5,53.9,29.86,NNW,338,4.4,4.4,29,0.00,,,0.00,VWS V14.01,2013-08-20 09:43:00,
2013-08-20 12:49:00,90.0,52.5,29.86,NE,45,10.9,10.9,28,0.00,,,0.00,VWS V14.01,2013-08-20 09:49:00,
2013-08-20 12:54:00,89.6,52.2,29.86,NNE,22,6.4,6.4,28,0.00,,,0.00,VWS V14.01,2013-08-20 09:54:00,
2013-08-20 12:59:00,89.8,50.3,29.86,NNE,22,10.2,10.2,26,0.00,,,0.00,VWS V14.01,2013-08-20 09:59:00,
2013-08-20 13:04:00,89.8,52.3,29.86,NE,45,2.9,2.9,28,0.00,,,0.00,VWS V14.01,2013-08-20 10:04:00,
2013-08-20 13:09:00,89.8,52.3,29.86,NNE,22,6.0,8.2,28,0.00,,,0.00,VWS V14.01,2013-08-20 10:09:00,
2013-08-20 13:14:00,90.3,51.8,29.86,NE,45,7.6,7.6,27,0.00,,,0.00,VWS V14.01,2013-08-20 10:14:00,
2013-08-20 13:19:00,90.1,50.6,29.86,NE,45,7.6,8.9,26,0.00,,,0.00,VWS V14.01,2013-08-20 10:19:00,
2013-08-20 13:24:00,90.1,51.6,29.86,NE,45,10.0,10.0,27,0.00,,,0.00,VWS V14.01,2013-08-20 10:24:00,
2013-08-20 13:29:00,90.1,51.6,29.86,NNW,338,7.8,7.8,27,0.00,,,0.00,VWS V14.01,2013-08-20 10:29:00,
2013-08-20 13:34:00,90.3,51.8,29.86,NE,45,9.1,9.1,27,0.00,,,0.00,VWS V14.01,2013-08-20 10:34:00,
2013-08-20 13:39:00,90.1,51.6,29.86,NNE,22,9.3,9.3,27,0.00,,,0.00,VWS V14.01,2013-08-20 10:39:00,
2013-08-20 13:44:00,90.1,53.6,29.86,ENE,68,8.0,8.0,29,0.00,,,0.00,VWS V14.01,2013-08-20 10:44:00,
2013-08-20 13:49:00,89.8,51.4,29.86,NE,45,8.7,8.7,27,0.00,,,0.00,VWS V14.01,2013-08-20 10:49:00,
2013-08-20 13:54:00,89.4,52.0,29.87,NE,45,10.0,10.0,28,0.00,,,0.00,VWS V14.01,2013-08-20 10:54:00,
2013-08-20 13:59:00,89.6,52.2,29.86,North,0,7.3,7.3,28,0.00,,,0.00,VWS V14.01,2013-08-20 10:59:00,
2013-08-20 14:04:00,90.1,52.6,29.86,NNE,22,7.8,7.8,28,0.00,,,0.00,VWS V14.01,2013-08-20 11:04:00,
2013-08-20 14:09:00,90.1,52.6,29.86,NE,45,5.8,5.8,28,0.00,,,0.00,VWS V14.01,2013-08-20 11:09:00,
2013-08-20 14:14:00,90.9,56.1,29.86,NNE,22,5.1,10.7,31,0.00,,,0.00,VWS V14.01,2013-08-20 11:14:00,
2013-08-20 14:19:00,90.7,59.3,29.86,ESE,112,4.0,4.2,35,0.00,,,0.00,VWS V14.01,2013-08-20 11:19:00,
2013-08-20 14:24:00,90.3,57.3,29.86,East,90,0.6,6.0,33,0.00,,,0.00,VWS V14.01,2013-08-20 11:24:00,
2013-08-20 14:29:00,90.0,58.7,29.86,ESE,112,2.2,2.2,35,0.00,,,0.00,VWS V14.01,2013-08-20 11:29:00,
2013-08-20 14:34:00,89.6,59.1,29.86,NE,45,2.0,5.8,36,0.00,,,0.00,VWS V14.01,2013-08-20 11:34:00,
2013-08-20 14:39:00,89.4,58.1,29.86,ESE,112,0.0,3.3,35,0.00,,,0.00,VWS V14.01,2013-08-20 11:39:00,
2013-08-20 14:44:00,89.6,59.1,29.86,ESE,112,5.1,6.2,36,0.00,,,0.00,VWS V14.01,2013-08-20 11:44:00,
2013-08-20 14:49:00,89.6,59.1,29.86,East,90,0.0,3.1,36,0.00,,,0.00,VWS V14.01,2013-08-20 11:49:00,
2013-08-20 14:54:00,89.6,59.1,29.86,East,90,4.9,4.9,36,0.00,,,0.00,VWS V14.01,2013-08-20 11:54:00,
2013-08-20 14:59:00,89.6,59.1,29.85,ENE,68,2.9,2.9,36,0.00,,,0.00,VWS V14.01,2013-08-20 11:59:00,
2013-08-20 15:05:00,89.6,58.3,29.86,NNE,22,0.0,0.0,35,0.00,,,0.00,VWS V14.01,2013-08-20 12:05:00,
2013-08-20 15:10:00,89.8,58.5,29.86,NE,45,3.5,3.5,35,0.00,,,0.00,VWS V14.01,2013-08-20 12:10:00,
2013-08-20 15:15:00,89.6,59.1,29.86,NE,45,0.0,0.0,36,0.00,,,0.00,VWS V14.01,2013-08-20 12:15:00,
2013-08-20 15:20:00,89.6,59.9,29.86,ESE,112,4.4,4.4,37,0.00,,,0.00,VWS V14.01,2013-08-20 12:20:00,
2013-08-20 15:25:00,89.6,59.9,29.86,East,90,2.0,2.0,37,0.00,,,0.00,VWS V14.01,2013-08-20 12:25:00,
2013-08-20 15:30:00,88.7,60.5,29.86,East,90,7.3,7.3,39,0.00,,,0.00,VWS V14.01,2013-08-20 12:30:00,
2013-08-20 15:35:00,88.7,59.8,29.86,East,90,3.8,3.8,38,0.00,,,0.00,VWS V14.01,2013-08-20 12:35:00,
2013-08-20 15:40:00,88.5,60.4,29.85,East,90,6.4,6.4,39,0.00,,,0.00,VWS V14.01,2013-08-20 12:40:00,
2013-08-20 15:45:00,88.7,59.8,29.85,ENE,68,0.0,0.0,38,0.00,,,0.00,VWS V14.01,2013-08-20 12:45:00,
2013-08-20 15:50:00,88.9,60.0,29.85,NE,45,6.7,6.7,38,0.00,,,0.00,VWS V14.01,2013-08-20 12:50:00,
2013-08-20 15:55:00,88.7,59.8,29.85,East,90,4.0,4.0,38,0.00,,,0.00,VWS V14.01,2013-08-20 12:55:00,
2013-08-20 16:00:00,88.3,58.7,29.85,ENE,68,3.8,3.8,37,0.00,,,0.00,VWS V14.01,2013-08-20 13:00:00,
2013-08-20 16:05:00,88.0,59.2,29.84,East,90,3.5,3.5,38,0.00,,,0.00,VWS V14.01,2013-08-20 13:05:00,
2013-08-20 16:10:00,87.8,59.8,29.84,ENE,68,4.9,8.2,39,0.00,,,0.00,VWS V14.01,2013-08-20 13:10:00,
2013-08-20 16:15:00,87.8,58.3,29.84,NE,45,8.9,8.9,37,0.00,,,0.00,VWS V14.01,2013-08-20 13:15:00,
2013-08-20 16:20:00,87.8,59.0,29.84,NE,45,5.5,5.5,38,0.00,,,0.00,VWS V14.01,2013-08-20 13:20:00,
2013-08-20 16:25:00,87.8,58.3,29.84,East,90,8.5,8.5,37,0.00,,,0.00,VWS V14.01,2013-08-20 13:25:00,
2013-08-20 16:30:00,87.4,57.9,29.84,ENE,68,6.0,6.0,37,0.00,,,0.00,VWS V14.01,2013-08-20 13:30:00,
2013-08-20 16:36:00,87.4,57.9,29.84,NE,45,3.1,3.1,37,0.00,,,0.00,VWS V14.01,2013-08-20 13:36:00,
2013-08-20 16:41:00,87.4,57.2,29.84,North,0,7.6,7.6,36,0.00,,,0.00,VWS V14.01,2013-08-20 13:41:00,
2013-08-20 16:46:00,87.4,57.2,29.84,East,90,9.1,9.1,36,0.00,,,0.00,VWS V14.01,2013-08-20 13:46:00,
2013-08-20 16:51:00,87.4,57.2,29.84,NNE,22,5.3,5.3,36,0.00,,,0.00,VWS V14.01,2013-08-20 13:51:00,
2013-08-20 16:56:00,87.4,57.2,29.84,NE,45,9.3,9.3,36,0.00,,,0.00,VWS V14.01,2013-08-20 13:56:00,
2013-08-20 17:01:00,87.4,57.2,29.84,NE,45,4.0,7.3,36,0.00,,,0.00,VWS V14.01,2013-08-20 14:01:00,
2013-08-20 17:06:00,87.8,56.7,29.84,NE,45,4.9,4.9,35,0.00,,,0.00,VWS V14.01,2013-08-20 14:06:00,
2013-08-20 17:11:00,87.4,56.4,29.84,East,90,5.1,5.1,35,0.00,,,0.00,VWS V14.01,2013-08-20 14:11:00,
2013-08-20 17:16:00,87.4,55.6,29.84,NNE,22,4.0,4.0,34,0.00,,,0.00,VWS V14.01,2013-08-20 14:16:00,
2013-08-20 17:21:00,87.4,55.6,29.84,NE,45,2.6,5.3,34,0.00,,,0.00,VWS V14.01,2013-08-20 14:21:00,
2013-08-20 17:26:00,87.4,53.9,29.84,NE,45,4.6,4.6,32,0.00,,,0.00,VWS V14.01,2013-08-20 14:26:00,
2013-08-20 17:31:00,87.4,55.6,29.84,ENE,68,3.1,3.1,34,0.00,,,0.00,VWS V14.01,2013-08-20 14:31:00,
2013-08-20 17:36:00,87.8,55.1,29.84,ESE,112,2.0,2.0,33,0.00,,,0.00,VWS V14.01,2013-08-20 14:36:00,
2013-08-20 17:41:00,87.8,55.1,29.84,NNE,22,4.6,4.6,33,0.00,,,0.00,VWS V14.01,2013-08-20 14:41:00,
2013-08-20 17:46:00,87.8,55.1,29.84,ENE,68,0.0,0.0,33,0.00,,,0.00,VWS V14.01,2013-08-20 14:46:00,
2013-08-20 17:51:00,87.6,54.1,29.84,ENE,68,1.5,1.5,32,0.00,,,0.00,VWS V14.01,2013-08-20 14:51:00,
2013-08-20 17:56:00,87.8,54.3,29.84,NNW,338,1.3,1.3,32,0.00,,,0.00,VWS V14.01,2013-08-20 14:56:00,
2013-08-20 18:01:00,87.4,53.9,29.84,NE,45,0.0,3.1,32,0.00,,,0.00,VWS V14.01,2013-08-20 15:01:00,
2013-08-20 18:06:00,87.1,51.9,29.84,NE,45,5.3,5.3,30,0.00,,,0.00,VWS V14.01,2013-08-20 15:06:00,
2013-08-20 18:11:00,86.9,51.7,29.84,NE,45,0.4,0.4,30,0.00,,,0.00,VWS V14.01,2013-08-20 15:11:00,
2013-08-20 18:16:00,86.7,53.3,29.85,NE,45,0.0,0.0,32,0.00,,,0.00,VWS V14.01,2013-08-20 15:16:00,
2013-08-20 18:21:00,86.7,53.3,29.84,NE,45,0.0,0.0,32,0.00,,,0.00,VWS V14.01,2013-08-20 15:21:00,
2013-08-20 18:26:00,86.9,53.5,29.84,North,0,6.7,9.1,32,0.00,,,0.00,VWS V14.01,2013-08-20 15:26:00,
2013-08-20 18:31:00,86.2,52.9,29.84,NE,45,0.6,4.6,32,0.00,,,0.00,VWS V14.01,2013-08-20 15:31:00,
2013-08-20 18:36:00,86.2,52.9,29.85,NE,45,2.9,2.9,32,0.00,,,0.00,VWS V14.01,2013-08-20 15:36:00,
2013-08-20 18:42:00,85.8,52.5,29.84,ENE,68,2.9,2.9,32,0.00,,,0.00,VWS V14.01,2013-08-20 15:42:00,
2013-08-20 18:47:00,85.6,53.2,29.85,NNE,22,0.0,0.0,33,0.00,,,0.00,VWS V14.01,2013-08-20 15:47:00,
2013-08-20 18:52:00,85.6,52.4,29.85,East,90,1.5,1.5,32,0.00,,,0.00,VWS V14.01,2013-08-20 15:52:00,
2013-08-20 18:57:00,85.6,52.4,29.85,North,0,4.0,4.0,32,0.00,,,0.00,VWS V14.01,2013-08-20 15:57:00,
2013-08-20 19:02:00,85.5,52.3,29.85,NE,45,0.0,0.4,32,0.00,,,0.00,VWS V14.01,2013-08-20 16:02:00,
2013-08-20 19:07:00,85.5,52.3,29.85,NW,315,4.6,4.6,32,0.00,,,0.00,VWS V14.01,2013-08-20 16:07:00,
2013-08-20 19:12:00,85.3,52.1,29.85,NE,45,0.0,0.2,32,0.00,,,0.00,VWS V14.01,2013-08-20 16:12:00,
2013-08-20 19:17:00,85.1,51.9,29.85,NNE,22,4.6,4.6,32,0.00,,,0.00,VWS V14.01,2013-08-20 16:17:00,
2013-08-20 19:22:00,84.9,52.6,29.86,ENE,68,0.0,0.0,33,0.00,,,0.00,VWS V14.01,2013-08-20 16:22:00,
2013-08-20 19:27:00,84.9,52.6,29.85,SE,135,0.0,0.0,33,0.00,,,0.00,VWS V14.01,2013-08-20 16:27:00,
2013-08-20 19:33:00,84.7,52.4,29.86,SSE,158,0.0,0.0,33,0.00,,,0.00,VWS V14.01,2013-08-20 16:33:00,
2013-08-20 19:38:00,84.4,52.2,29.86,SSE,158,0.0,0.0,33,0.00,,,0.00,VWS V14.01,2013-08-20 16:38:00,
2013-08-20 19:43:00,84.2,52.0,29.86,NW,315,0.0,0.0,33,0.00,,,0.00,VWS V14.01,2013-08-20 16:43:00,
2013-08-20 19:48:00,83.8,51.6,29.86,SSW,202,2.4,2.4,33,0.00,,,0.00,VWS V14.01,2013-08-20 16:48:00,
2013-08-20 19:53:00,83.3,52.0,29.86,SSW,202,0.0,0.0,34,0.00,,,0.00,VWS V14.01,2013-08-20 16:53:00,
2013-08-20 19:58:00,83.1,51.8,29.86,SSW,202,0.0,0.0,34,0.00,,,0.00,VWS V14.01,2013-08-20 16:58:00,
2013-08-20 20:03:00,82.9,51.7,29.86,SSW,202,0.0,0.0,34,0.00,,,0.00,VWS V14.01,2013-08-20 17:03:00,
2013-08-20 20:08:00,82.6,51.4,29.86,SSW,202,0.0,0.0,34,0.00,,,0.00,VWS V14.01,2013-08-20 17:08:00,
2013-08-20 20:13:00,82.4,51.2,29.86,SSW,202,0.0,0.0,34,0.00,,,0.00,VWS V14.01,2013-08-20 17:13:00,
2013-08-20 20:18:00,82.4,50.4,29.86,SSW,202,0.0,0.0,33,0.00,,,0.00,VWS V14.01,2013-08-20 17:18:00,
2013-08-20 20:23:00,82.4,50.4,29.86,WSW,248,0.0,0.6,33,0.00,,,0.00,VWS V14.01,2013-08-20 17:23:00,
2013-08-20 20:28:00,82.4,50.4,29.86,NNW,338,0.0,0.0,33,0.00,,,0.00,VWS V14.01,2013-08-20 17:28:00,
2013-08-20 20:33:00,82.0,50.0,29.86,NE,45,4.0,4.0,33,0.00,,,0.00,VWS V14.01,2013-08-20 17:33:00,
2013-08-20 20:39:00,82.0,50.9,29.86,ESE,112,0.0,0.0,34,0.00,,,0.00,VWS V14.01,2013-08-20 17:39:00,
2013-08-20 20:44:00,81.9,50.8,29.86,East,90,0.0,0.0,34,0.00,,,0.00,VWS V14.01,2013-08-20 17:44:00,
2013-08-20 20:49:00,81.7,50.6,29.87,NE,45,0.0,0.0,34,0.00,,,0.00,VWS V14.01,2013-08-20 17:49:00,
2013-08-20 20:54:00,81.5,50.4,29.86,NE,45,2.0,2.0,34,0.00,,,0.00,VWS V14.01,2013-08-20 17:54:00,
2013-08-20 20:59:00,81.5,49.6,29.87,NE,45,1.1,1.1,33,0.00,,,0.00,VWS V14.01,2013-08-20 17:59:00,
2013-08-20 21:04:00,81.5,48.8,29.86,ESE,112,0.0,0.0,32,0.00,,,0.00,VWS V14.01,2013-08-20 18:04:00,
2013-08-20 21:09:00,81.5,48.8,29.87,ENE,68,0.0,0.0,32,0.00,,,0.00,VWS V14.01,2013-08-20 18:09:00,
2013-08-20 21:14:00,81.5,48.8,29.87,NNE,22,0.0,0.0,32,0.00,,,0.00,VWS V14.01,2013-08-20 18:14:00,
2013-08-20 21:19:00,81.5,48.8,29.87,NNE,22,0.0,0.0,32,0.00,,,0.00,VWS V14.01,2013-08-20 18:19:00,
2013-08-20 21:24:00,81.5,48.8,29.87,NNE,22,0.0,0.0,32,0.00,,,0.00,VWS V14.01,2013-08-20 18:24:00,
2013-08-20 21:29:00,81.3,48.6,29.87,NNE,22,3.1,3.1,32,0.00,,,0.00,VWS V14.01,2013-08-20 18:29:00,
2013-08-20 21:34:00,81.3,47.8,29.87,NE,45,0.0,0.0,31,0.00,,,0.00,VWS V14.01,2013-08-20 18:34:00,
2013-08-20 21:39:00,81.5,48.8,29.87,East,90,4.4,4.4,32,0.00,,,0.00,VWS V14.01,2013-08-20 18:39:00,
2013-08-20 21:44:00,81.5,48.8,29.86,NE,45,0.0,0.0,32,0.00,,,0.00,VWS V14.01,2013-08-20 18:44:00,
2013-08-20 21:49:00,81.1,48.5,29.87,NNE,22,2.2,2.2,32,0.00,,,0.00,VWS V14.01,2013-08-20 18:49:00,
2013-08-20 21:54:00,81.1,47.6,29.87,NE,45,0.0,0.0,31,0.00,,,0.00,VWS V14.01,2013-08-20 18:54:00,
2013-08-20 21:59:00,81.1,48.5,29.87,SE,135,1.5,1.5,32,0.00,,,0.00,VWS V14.01,2013-08-20 18:59:00,
2013-08-20 22:04:00,81.0,48.4,29.87,ESE,112,0.0,0.0,32,0.00,,,0.00,VWS V14.01,2013-08-20 19:04:00,
2013-08-20 22:09:00,80.8,48.2,29.87,ESE,112,0.0,0.0,32,0.00,,,0.00,VWS V14.01,2013-08-20 19:09:00,
2013-08-20 22:14:00,80.6,48.0,29.87,ESE,112,0.0,0.0,32,0.00,,,0.00,VWS V14.01,2013-08-20 19:14:00,
2013-08-20 22:19:00,80.2,47.7,29.87,SSW,202,0.0,0.0,32,0.00,,,0.00,VWS V14.01,2013-08-20 19:19:00,
2013-08-20 22:24:00,80.2,47.7,29.87,SSW,202,0.0,0.0,32,0.00,,,0.00,VWS V14.01,2013-08-20 19:24:00,
2013-08-20 22:29:00,80.6,47.2,29.87,SW,225,0.0,0.0,31,0.00,,,0.00,VWS V14.01,2013-08-20 19:29:00,
2013-08-20 22:35:00,80.8,46.5,29.87,SW,225,0.0,0.0,30,0.00,,,0.00,VWS V14.01,2013-08-20 19:35:00,
2013-08-20 22:40:00,80.8,45.6,29.87,SW,225,0.0,0.0,29,0.00,,,0.00,VWS V14.01,2013-08-20 19:40:00,
2013-08-20 22:45:00,80.8,46.5,29.87,SW,225,0.0,0.0,30,0.00,,,0.00,VWS V14.01,2013-08-20 19:45:00,
2013-08-20 22:50:00,80.6,47.2,29.87,SW,225,0.0,0.0,31,0.00,,,0.00,VWS V14.01,2013-08-20 19:50:00,
2013-08-20 22:55:00,80.2,46.0,29.87,WNW,292,0.0,0.0,30,0.00,,,0.00,VWS V14.01,2013-08-20 19:55:00,
2013-08-20 23:00:00,80.4,46.1,29.87,WNW,292,1.3,1.3,30,0.00,,,0.00,VWS V14.01,2013-08-20 20:00:00,
2013-08-20 23:05:00,80.6,46.3,29.87,WNW,292,0.0,0.0,30,0.00,,,0.00,VWS V14.01,2013-08-20 20:05:00,
2013-08-20 23:10:00,80.6,46.3,29.87,West,270,0.0,0.0,30,0.00,,,0.00,VWS V14.01,2013-08-20 20:10:00,
2013-08-20 23:15:00,80.8,46.5,29.87,SE,135,0.0,0.0,30,0.00,,,0.00,VWS V14.01,2013-08-20 20:15:00,
2013-08-20 23:20:00,80.8,46.5,29.87,ESE,112,0.0,0.0,30,0.00,,,0.00,VWS V14.01,2013-08-20 20:20:00,
2013-08-20 23:25:00,81.1,47.6,29.87,WNW,292,0.0,0.0,31,0.00,,,0.00,VWS V14.01,2013-08-20 20:25:00,
2013-08-20 23:30:00,81.3,46.9,29.87,NE,45,0.0,0.0,30,0.00,,,0.00,VWS V14.01,2013-08-20 20:30:00,
2013-08-20 23:35:00,81.1,47.6,29.87,NE,45,0.0,0.0,31,0.00,,,0.00,VWS V14.01,2013-08-20 20:35:00,
2013-08-20 23:40:00,80.8,47.3,29.87,WNW,292,5.1,5.1,31,0.00,,,0.00,VWS V14.01,2013-08-20 20:40:00,
2013-08-20 23:45:00,81.0,50.0,29.87,WNW,292,0.0,0.0,34,0.00,,,0.00,VWS V14.01,2013-08-20 20:45:00,
2013-08-20 23:50:00,81.1,50.8,29.87,WNW,292,1.3,1.3,35,0.00,,,0.00,VWS V14.01,2013-08-20 20:50:00,
2013-08-20 23:55:00,81.1,50.8,29.87,NNW,338,0.0,0.0,35,0.00,,,0.00,VWS V14.01,2013-08-20 20:55:00,